createdAt,value
2022-07-25T00:00:47.372Z,17.65
2022-07-25T00:03:18.547Z,17.32
2022-07-25T00:05:46.878Z,17.26
2022-07-25T00:08:16.100Z,17.96
2022-07-25T00:10:44.423Z,17.71
2022-07-25T00:13:13.252Z,17.31
2022-07-25T00:15:42.006Z,17.56
2022-07-25T00:18:10.789Z,17.49
2022-07-25T00:20:39.378Z,17.48
2022-07-25T00:23:08.079Z,17.87
2022-07-25T00:25:37.365Z,17.88
2022-07-25T00:28:06.312Z,18.28
2022-07-25T00:30:34.881Z,18.11
2022-07-25T00:33:03.330Z,18.37
2022-07-25T00:35:32.193Z,18.42
2022-07-25T00:38:00.121Z,18.69
2022-07-25T00:40:29.163Z,18.74
2022-07-25T00:42:58.360Z,18.77
2022-07-25T00:45:26.038Z,18.78
2022-07-25T00:47:53.957Z,19.17
2022-07-25T00:50:22.649Z,19.41
2022-07-25T00:52:51.395Z,19.23
2022-07-25T00:55:19.851Z,18.50
2022-07-25T00:57:47.784Z,18.54
2022-07-25T01:00:19.537Z,19.01
2022-07-25T01:02:48.480Z,18.62
2022-07-25T01:05:19.082Z,19.09
2022-07-25T01:07:48.533Z,18.77
2022-07-25T01:10:16.772Z,19.06
2022-07-25T01:12:54.886Z,19.02
2022-07-25T01:15:25.117Z,18.91
2022-07-25T01:17:53.268Z,19.08
2022-07-25T01:20:27.953Z,18.83
2022-07-25T01:22:56.674Z,18.99
2022-07-25T01:25:25.290Z,18.98
2022-07-25T01:27:55.710Z,18.84
2022-07-25T01:30:25.806Z,18.80
2022-07-25T01:32:55.144Z,18.26
2022-07-25T01:35:24.633Z,17.93
2022-07-25T01:37:53.411Z,17.76
2022-07-25T01:40:21.319Z,17.79
2022-07-25T01:42:50.007Z,17.82
2022-07-25T01:45:17.889Z,17.87
2022-07-25T01:47:45.819Z,17.41
2022-07-25T01:50:13.789Z,17.55
2022-07-25T01:52:44.304Z,17.29
2022-07-25T01:55:12.249Z,17.33
2022-07-25T01:57:41.335Z,17.52
2022-07-25T02:00:18.344Z,17.58
2022-07-25T02:02:46.877Z,17.31
2022-07-25T02:05:15.768Z,17.31
2022-07-25T02:07:44.863Z,17.66
2022-07-25T02:10:14.356Z,17.68
2022-07-25T02:12:42.265Z,17.77
2022-07-25T02:15:10.776Z,17.77
2022-07-25T02:17:39.835Z,17.58
2022-07-25T02:20:08.509Z,18.08
2022-07-25T02:22:37.280Z,18.40
2022-07-25T02:25:10.201Z,18.14
2022-07-25T02:27:38.721Z,18.24
2022-07-25T02:30:07.871Z,18.04
2022-07-25T02:36:16.257Z,18.22
2022-07-25T02:38:44.993Z,18.07
2022-07-25T02:41:14.168Z,17.64
2022-07-25T02:43:42.962Z,17.57
2022-07-25T02:46:12.252Z,18.13
2022-07-25T02:48:40.988Z,17.31
2022-07-25T02:51:09.261Z,17.51
2022-07-25T02:53:56.688Z,17.58
2022-07-25T02:56:32.058Z,18.13
2022-07-25T02:59:00.245Z,17.78
2022-07-25T03:01:28.726Z,17.69
2022-07-25T03:03:57.430Z,18.19
2022-07-25T03:06:27.472Z,18.01
2022-07-25T03:08:56.283Z,18.14
2022-07-25T03:11:24.402Z,17.80
2022-07-25T03:13:56.147Z,18.26
2022-07-25T03:16:24.393Z,18.08
2022-07-25T03:18:53.344Z,17.61
2022-07-25T03:21:21.279Z,17.58
2022-07-25T03:24:03.761Z,17.65
2022-07-25T03:27:35.709Z,17.54
2022-07-25T03:30:05.968Z,17.80
2022-07-25T03:32:33.782Z,18.29
2022-07-25T03:35:03.372Z,18.14
2022-07-25T03:37:33.210Z,18.22
2022-07-25T03:40:01.659Z,18.48
2022-07-25T03:42:34.979Z,18.40
2022-07-25T03:45:08.338Z,18.03
2022-07-25T03:47:36.224Z,18.42
2022-07-25T03:50:04.400Z,18.57
2022-07-25T03:52:33.186Z,18.45
2022-07-25T03:55:01.220Z,18.16
2022-07-25T03:57:29.077Z,18.07
2022-07-25T03:59:57.931Z,17.98
2022-07-25T04:02:31.241Z,17.93
2022-07-25T04:04:59.318Z,17.96
2022-07-25T04:07:27.912Z,17.97
2022-07-25T04:09:56.653Z,18.19
2022-07-25T04:12:24.582Z,18.16
2022-07-25T04:14:52.694Z,18.14
2022-07-25T04:17:20.527Z,18.20
2022-07-25T04:19:52.555Z,18.37
2022-07-25T04:23:24.516Z,18.45
2022-07-25T04:25:52.464Z,18.74
2022-07-25T04:28:20.689Z,18.64
2022-07-25T04:30:49.313Z,18.88
2022-07-25T04:33:18.148Z,18.81
2022-07-25T04:35:48.081Z,18.84
2022-07-25T04:38:16.834Z,19.15
2022-07-25T04:40:44.927Z,19.03
2022-07-25T04:43:13.730Z,19.28
2022-07-25T04:45:42.349Z,19.33
2022-07-25T04:48:11.264Z,19.42
2022-07-25T04:50:39.263Z,19.46
2022-07-25T04:53:08.782Z,19.59
2022-07-25T04:55:38.952Z,19.70
2022-07-25T04:58:07.426Z,19.68
2022-07-25T05:00:35.490Z,19.63
2022-07-25T05:03:04.238Z,19.63
2022-07-25T05:05:32.791Z,19.61
2022-07-25T05:08:01.107Z,19.56
2022-07-25T05:10:33.054Z,19.51
2022-07-25T05:13:00.957Z,19.59
2022-07-25T05:15:29.977Z,19.62
2022-07-25T05:17:57.895Z,19.68
2022-07-25T05:21:29.957Z,19.68
2022-07-25T05:23:59.190Z,19.85
2022-07-25T05:26:28.437Z,19.92
2022-07-25T05:28:57.015Z,19.97
2022-07-25T05:31:25.837Z,20.07
2022-07-25T05:33:54.479Z,20.13
2022-07-25T05:36:22.996Z,20.27
2022-07-25T05:38:51.432Z,20.35
2022-07-25T05:41:21.409Z,20.43
2022-07-25T05:43:54.036Z,20.49
2022-07-25T05:46:22.278Z,20.66
2022-07-25T05:48:53.927Z,20.85
2022-07-25T05:51:26.835Z,20.96
2022-07-25T05:53:55.436Z,21.23
2022-07-25T05:56:23.560Z,21.44
2022-07-25T05:58:52.755Z,21.68
2022-07-25T06:01:20.541Z,21.73
2022-07-25T06:03:48.539Z,21.99
2022-07-25T06:06:16.533Z,22.05
2022-07-25T06:08:45.355Z,22.40
2022-07-25T06:11:13.356Z,22.35
2022-07-25T06:13:41.290Z,22.60
2022-07-25T06:16:11.107Z,22.80
2022-07-25T06:18:39.144Z,23.32
2022-07-25T06:21:07.730Z,23.51
2022-07-25T06:23:35.361Z,23.54
2022-07-25T06:26:03.074Z,23.91
2022-07-25T06:28:30.830Z,23.95
2022-07-25T06:30:58.425Z,23.84
2022-07-25T06:33:27.464Z,23.93
2022-07-25T06:35:55.136Z,24.07
2022-07-25T06:38:22.803Z,24.30
2022-07-25T06:40:50.436Z,24.22
2022-07-25T06:43:18.163Z,24.60
2022-07-25T06:45:47.448Z,24.55
2022-07-25T06:48:15.759Z,24.59
2022-07-25T06:50:44.845Z,24.56
2022-07-25T06:53:12.659Z,24.87
2022-07-25T06:55:40.350Z,24.83
2022-07-25T06:58:08.308Z,25.12
2022-07-25T07:00:37.056Z,25.29
2022-07-25T07:03:07.060Z,25.34
2022-07-25T07:05:37.755Z,25.47
2022-07-25T07:08:10.442Z,25.51
2022-07-25T07:10:40.401Z,25.50
2022-07-25T07:13:11.548Z,25.60
2022-07-25T07:15:41.130Z,25.66
2022-07-25T07:18:09.145Z,25.75
2022-07-25T07:20:37.266Z,25.91
2022-07-25T07:23:05.681Z,26.06
2022-07-25T07:25:35.339Z,25.79
2022-07-25T07:28:03.659Z,26.18
2022-07-25T07:30:58.525Z,26.34
2022-07-25T07:33:20.796Z,26.39
2022-07-25T07:35:48.689Z,26.55
2022-07-25T07:38:18.129Z,26.89
2022-07-25T07:41:47.005Z,27.23
2022-07-25T07:44:16.669Z,26.93
2022-07-25T07:46:44.653Z,27.23
2022-07-25T07:49:13.548Z,27.01
2022-07-25T07:51:41.288Z,27.01
2022-07-25T07:54:26.718Z,27.07
2022-07-25T07:56:55.288Z,26.78
2022-07-25T07:59:27.912Z,26.85
2022-07-25T08:01:57.199Z,26.92
2022-07-25T08:04:25.424Z,27.33
2022-07-25T08:06:54.000Z,27.71
2022-07-25T08:09:23.867Z,27.30
2022-07-25T08:11:52.023Z,27.42
2022-07-25T08:14:20.781Z,27.40
2022-07-25T08:16:53.499Z,27.42
2022-07-25T08:19:21.962Z,27.76
2022-07-25T08:21:50.042Z,27.20
2022-07-25T08:24:18.035Z,27.50
2022-07-25T08:26:46.502Z,27.47
2022-07-25T08:29:21.237Z,27.59
2022-07-25T08:31:55.285Z,27.80
2022-07-25T08:34:23.922Z,27.74
2022-07-25T08:36:51.687Z,27.68
2022-07-25T08:39:19.454Z,27.83
2022-07-25T08:41:47.696Z,27.75
2022-07-25T08:44:17.093Z,27.99
2022-07-25T08:46:45.644Z,28.00
2022-07-25T08:49:18.892Z,28.05
2022-07-25T08:51:47.629Z,27.84
2022-07-25T08:54:19.689Z,27.81
2022-07-25T08:56:52.703Z,27.76
2022-07-25T08:59:20.689Z,27.54
2022-07-25T09:01:49.466Z,27.28
2022-07-25T09:04:21.370Z,27.29
2022-07-25T09:06:54.843Z,27.23
2022-07-25T09:09:32.296Z,27.00
2022-07-25T09:12:01.153Z,26.86
2022-07-25T09:14:30.022Z,26.89
2022-07-25T09:16:59.137Z,27.08
2022-07-25T09:19:33.191Z,27.20
2022-07-25T09:22:03.536Z,27.51
2022-07-25T09:24:33.534Z,27.79
2022-07-25T09:27:10.140Z,27.95
2022-07-25T09:29:42.682Z,28.75
2022-07-25T09:32:18.888Z,28.82
2022-07-25T09:34:49.614Z,28.66
2022-07-25T09:38:21.988Z,28.35
2022-07-25T09:40:57.540Z,28.50
2022-07-25T09:43:25.721Z,28.64
2022-07-25T09:49:41.659Z,29.31
2022-07-25T09:52:16.754Z,29.64
2022-07-25T09:54:45.721Z,29.39
2022-07-25T09:57:13.681Z,29.74
2022-07-25T09:59:41.713Z,29.57
2022-07-25T10:02:16.975Z,29.94
2022-07-25T10:04:47.467Z,29.32
2022-07-25T10:07:20.886Z,29.53
2022-07-25T10:09:51.187Z,29.90
2022-07-25T10:12:21.168Z,29.73
2022-07-25T10:15:06.551Z,30.65
2022-07-25T10:17:34.715Z,30.89
2022-07-25T10:20:04.078Z,30.24
2022-07-25T10:22:56.810Z,30.23
2022-07-25T10:25:25.675Z,30.35
2022-07-25T10:28:00.065Z,30.90
2022-07-25T10:30:30.331Z,31.01
2022-07-25T10:32:59.713Z,30.88
2022-07-25T10:35:28.639Z,30.64
2022-07-25T10:37:59.353Z,30.24
2022-07-25T10:40:33.687Z,30.52
2022-07-25T10:43:09.968Z,30.28
2022-07-25T10:45:45.178Z,30.71
2022-07-25T10:48:21.149Z,30.24
2022-07-25T10:50:55.854Z,30.55
2022-07-25T10:53:38.243Z,30.55
2022-07-25T10:56:09.318Z,30.58
2022-07-25T10:58:44.484Z,30.54
2022-07-25T11:01:14.946Z,30.37
2022-07-25T11:03:45.690Z,30.67
2022-07-25T11:06:15.173Z,30.23
2022-07-25T11:08:45.998Z,30.43
2022-07-25T11:11:14.430Z,30.02
2022-07-25T11:13:43.434Z,29.90
2022-07-25T11:16:12.341Z,30.46
2022-07-25T11:18:42.549Z,30.40
2022-07-25T11:21:11.364Z,30.04
2022-07-25T11:23:39.229Z,30.30
2022-07-25T11:26:10.199Z,30.98
2022-07-25T11:28:42.278Z,30.45
2022-07-25T11:31:10.971Z,31.60
2022-07-25T11:33:42.119Z,31.69
2022-07-25T11:36:11.740Z,31.85
2022-07-25T11:39:44.083Z,31.55
2022-07-25T11:42:16.369Z,31.55
2022-07-25T11:44:47.883Z,30.66
2022-07-25T11:47:30.117Z,31.60
2022-07-25T11:49:59.762Z,30.98
2022-07-25T11:52:31.191Z,30.64
2022-07-25T11:55:00.468Z,30.63
2022-07-25T11:57:30.842Z,30.85
2022-07-25T12:00:01.360Z,31.65
2022-07-25T12:02:32.094Z,31.38
2022-07-25T12:05:01.356Z,30.36
2022-07-25T12:07:40.148Z,30.96
2022-07-25T12:10:10.688Z,30.79
2022-07-25T12:12:48.633Z,30.35
2022-07-25T12:15:17.941Z,31.32
2022-07-25T12:17:47.255Z,30.69
2022-07-25T12:20:19.825Z,31.26
2022-07-25T12:22:48.888Z,30.86
2022-07-25T12:25:17.651Z,30.75
2022-07-25T12:27:50.308Z,30.93
2022-07-25T12:30:19.597Z,30.75
2022-07-25T12:32:48.297Z,30.16
2022-07-25T12:35:17.308Z,30.46
2022-07-25T12:37:45.629Z,30.74
2022-07-25T12:40:14.882Z,30.20
2022-07-25T12:42:44.066Z,30.87
2022-07-25T12:45:17.158Z,30.88
2022-07-25T12:47:45.496Z,29.33
2022-07-25T12:50:14.937Z,29.08
2022-07-25T12:52:44.168Z,29.45
2022-07-25T12:55:13.721Z,29.04
2022-07-25T12:57:42.169Z,28.97
2022-07-25T13:00:12.913Z,28.82
2022-07-25T13:02:42.402Z,28.82
2022-07-25T13:05:11.800Z,29.30
2022-07-25T13:07:40.721Z,28.81
2022-07-25T13:10:09.310Z,28.71
2022-07-25T13:12:37.059Z,28.77
2022-07-25T13:15:05.530Z,29.61
2022-07-25T13:17:33.954Z,31.48
2022-07-25T13:20:07.336Z,32.72
2022-07-25T13:22:35.580Z,31.95
2022-07-25T13:25:04.641Z,29.75
2022-07-25T13:27:33.385Z,30.23
2022-07-25T13:30:03.064Z,29.58
2022-07-25T13:33:32.271Z,28.74
2022-07-25T13:36:02.488Z,30.21
2022-07-25T13:38:31.142Z,30.62
2022-07-25T13:42:00.312Z,30.14
2022-07-25T13:44:28.172Z,30.51
2022-07-25T13:46:57.451Z,28.93
2022-07-25T13:49:25.424Z,28.49
2022-07-25T13:51:55.219Z,28.13
2022-07-25T13:54:23.498Z,28.94
2022-07-25T13:56:53.094Z,29.52
2022-07-25T13:59:22.155Z,31.29
2022-07-25T14:01:50.692Z,29.79
2022-07-25T14:04:19.880Z,29.26
2022-07-25T14:06:51.960Z,28.24
2022-07-25T14:09:24.389Z,28.24
2022-07-25T14:12:57.258Z,28.51
2022-07-25T14:15:25.119Z,30.07
2022-07-25T14:17:53.679Z,30.13
2022-07-25T14:20:21.705Z,28.88
2022-07-25T14:22:50.768Z,28.59
2022-07-25T14:25:20.245Z,27.78
2022-07-25T14:27:48.299Z,28.09
2022-07-25T14:30:16.897Z,27.64
2022-07-25T14:32:45.584Z,27.63
2022-07-25T14:35:14.060Z,28.24
2022-07-25T14:37:42.468Z,28.25
2022-07-25T14:40:14.634Z,27.55
2022-07-25T14:42:44.800Z,27.40
2022-07-25T14:45:13.364Z,26.96
2022-07-25T14:48:45.232Z,26.60
2022-07-25T14:51:13.211Z,26.38
2022-07-25T14:53:42.114Z,26.59
2022-07-25T14:56:10.856Z,26.32
2022-07-25T14:58:43.074Z,26.06
2022-07-25T15:01:11.414Z,25.83
2022-07-25T15:03:40.157Z,25.38
2022-07-25T15:06:10.320Z,25.49
2022-07-25T15:08:38.830Z,25.77
2022-07-25T15:11:08.217Z,26.16
2022-07-25T15:13:36.522Z,26.30
2022-07-25T15:16:07.957Z,25.84
2022-07-25T15:18:58.558Z,25.97
2022-07-25T15:21:25.567Z,28.86
2022-07-25T15:23:53.989Z,27.60
2022-07-25T15:26:21.854Z,27.55
2022-07-25T15:28:50.393Z,26.95
2022-07-25T15:31:21.352Z,26.68
2022-07-25T15:33:49.792Z,26.13
2022-07-25T15:36:20.068Z,25.62
2022-07-25T15:38:47.907Z,25.45
2022-07-25T15:41:16.329Z,25.08
2022-07-25T15:43:44.100Z,24.55
2022-07-25T15:46:12.622Z,24.70
2022-07-25T15:48:42.028Z,24.58
2022-07-25T15:51:10.043Z,24.67
2022-07-25T15:53:38.152Z,24.44
2022-07-25T15:56:06.357Z,24.32
2022-07-25T15:58:34.623Z,23.89
2022-07-25T16:01:03.422Z,24.09
2022-07-25T16:03:32.874Z,23.95
2022-07-25T16:06:04.730Z,24.18
2022-07-25T16:08:32.547Z,24.37
2022-07-25T16:11:01.048Z,25.67
2022-07-25T16:13:29.701Z,25.95
2022-07-25T16:15:59.005Z,28.05
2022-07-25T16:18:27.873Z,27.72
2022-07-25T16:20:57.341Z,26.93
2022-07-25T16:23:28.162Z,26.12
2022-07-25T16:25:56.747Z,28.29
2022-07-25T16:28:24.461Z,27.67
2022-07-25T16:30:54.186Z,28.32
2022-07-25T16:33:21.974Z,27.41
2022-07-25T16:35:49.848Z,30.04
2022-07-25T16:38:18.576Z,29.25
2022-07-25T16:40:47.867Z,28.70
2022-07-25T16:44:19.719Z,26.99
2022-07-25T16:46:47.968Z,26.29
2022-07-25T16:49:16.311Z,26.65
2022-07-25T16:51:44.285Z,25.95
2022-07-25T16:54:13.150Z,25.67
2022-07-25T16:56:43.469Z,25.76
2022-07-25T16:59:11.743Z,25.72
2022-07-25T17:01:40.236Z,24.97
2022-07-25T17:04:08.384Z,24.92
2022-07-25T17:06:38.140Z,24.98
2022-07-25T17:09:07.541Z,24.79
2022-07-25T17:11:37.329Z,24.60
2022-07-25T17:14:06.495Z,24.58
2022-07-25T17:16:35.277Z,24.47
2022-07-25T17:19:04.451Z,24.67
2022-07-25T17:21:33.215Z,24.44
2022-07-25T17:24:01.188Z,24.45
2022-07-25T17:26:29.897Z,25.09
2022-07-25T17:28:59.703Z,25.68
2022-07-25T17:31:29.710Z,26.54
2022-07-25T17:33:57.750Z,27.19
2022-07-25T17:36:25.719Z,27.88
2022-07-25T17:38:53.499Z,27.46
2022-07-25T17:42:25.560Z,27.58
2022-07-25T17:44:54.052Z,26.53
2022-07-25T17:47:24.564Z,25.63
2022-07-25T17:49:52.825Z,25.12
2022-07-25T17:52:20.598Z,24.69
2022-07-25T17:54:48.765Z,24.43
2022-07-25T17:57:17.388Z,24.11
2022-07-25T17:59:45.492Z,23.89
2022-07-25T18:02:14.289Z,23.78
2022-07-25T18:04:46.406Z,23.70
2022-07-25T18:07:15.133Z,23.63
2022-07-25T18:09:42.977Z,23.54
2022-07-25T18:12:11.805Z,23.44
2022-07-25T18:14:39.641Z,23.52
2022-07-25T18:17:09.254Z,23.73
2022-07-25T18:19:38.031Z,23.80
2022-07-25T18:22:10.881Z,23.96
2022-07-25T18:24:38.849Z,23.94
2022-07-25T18:27:08.277Z,23.89
2022-07-25T18:29:38.789Z,24.02
2022-07-25T18:32:07.556Z,23.95
2022-07-25T18:34:36.516Z,24.04
2022-07-25T18:37:04.459Z,23.87
2022-07-25T18:39:37.393Z,23.63
2022-07-25T18:42:06.418Z,23.38
2022-07-25T18:44:34.255Z,23.30
2022-07-25T18:47:02.128Z,23.26
2022-07-25T18:49:30.530Z,23.08
2022-07-25T18:51:58.456Z,23.01
2022-07-25T18:54:26.118Z,22.88
2022-07-25T18:56:56.231Z,22.77
2022-07-25T18:59:25.381Z,22.70
2022-07-25T19:01:55.155Z,22.54
2022-07-25T19:04:23.680Z,22.46
2022-07-25T19:06:52.162Z,22.33
2022-07-25T19:09:20.068Z,22.30
2022-07-25T19:11:49.059Z,22.17
2022-07-25T19:14:23.039Z,22.04
2022-07-25T19:16:51.693Z,22.03
2022-07-25T19:19:21.384Z,21.98
2022-07-25T19:21:51.579Z,21.90
2022-07-25T19:24:19.960Z,21.87
2022-07-25T19:26:48.840Z,21.78
2022-07-25T19:29:20.008Z,21.75
2022-07-25T19:31:49.112Z,21.60
2022-07-25T19:34:17.518Z,21.60
2022-07-25T19:36:46.470Z,21.54
2022-07-25T19:39:16.017Z,21.51
2022-07-25T19:41:47.101Z,21.34
2022-07-25T19:44:16.222Z,21.36
2022-07-25T19:46:46.467Z,21.25
2022-07-25T19:50:18.577Z,21.37
2022-07-25T19:52:46.928Z,21.20
2022-07-25T19:55:14.619Z,21.18
2022-07-25T19:57:43.945Z,21.08
2022-07-25T20:00:12.513Z,20.85
2022-07-25T20:02:44.922Z,20.86
2022-07-25T20:05:12.792Z,20.70
2022-07-25T20:07:40.513Z,20.63
2022-07-25T20:10:10.149Z,20.67
2022-07-25T20:12:38.100Z,20.56
2022-07-25T20:15:07.229Z,20.41
2022-07-25T20:17:35.939Z,20.50
2022-07-25T20:20:07.329Z,20.51
2022-07-25T20:22:37.936Z,20.39
2022-07-25T20:25:06.458Z,20.32
2022-07-25T20:27:35.361Z,20.27
2022-07-25T20:30:04.627Z,20.10
2022-07-25T20:32:33.115Z,20.32
2022-07-25T20:35:01.279Z,20.23
2022-07-25T20:37:30.494Z,20.37
2022-07-25T20:39:59.455Z,20.34
2022-07-25T20:42:27.445Z,20.39
2022-07-25T20:44:56.597Z,20.42
2022-07-25T20:47:25.357Z,20.40
2022-07-25T20:49:53.941Z,20.40
2022-07-25T20:52:21.667Z,20.38
2022-07-25T20:54:50.997Z,20.39
2022-07-25T20:57:19.572Z,20.39
2022-07-25T20:59:50.756Z,20.39
2022-07-25T21:02:18.966Z,20.38
2022-07-25T21:04:49.029Z,20.34
2022-07-25T21:07:17.089Z,20.29
2022-07-25T21:09:45.426Z,20.25
2022-07-25T21:12:17.537Z,20.25
2022-07-25T21:14:46.013Z,20.22
2022-07-25T21:17:13.835Z,20.20
2022-07-25T21:19:42.576Z,20.18
2022-07-25T21:22:11.213Z,20.10
2022-07-25T21:24:39.550Z,20.04
2022-07-25T21:27:07.593Z,20.00
2022-07-25T21:29:37.646Z,20.01
2022-07-25T21:32:07.420Z,20.00
2022-07-25T21:34:35.336Z,20.02
2022-07-25T21:37:04.305Z,20.05
2022-07-25T21:39:33.192Z,20.02
2022-07-25T21:42:02.141Z,19.94
2022-07-25T21:44:30.350Z,19.98
2022-07-25T21:46:59.637Z,19.92
2022-07-25T21:49:44.941Z,19.87
2022-07-25T21:52:14.332Z,19.87
2022-07-25T21:54:42.645Z,19.87
2022-07-25T21:57:13.761Z,19.82
2022-07-25T21:59:42.031Z,19.78
2022-07-25T22:02:11.267Z,19.81
2022-07-25T22:04:40.627Z,19.80
2022-07-25T22:07:08.671Z,19.80
2022-07-25T22:09:36.917Z,19.87
2022-07-25T22:12:06.970Z,19.89
2022-07-25T22:14:34.779Z,19.85
2022-07-25T22:17:02.786Z,19.86
2022-07-25T22:19:32.312Z,19.82
2022-07-25T22:22:01.179Z,19.84
2022-07-25T22:24:28.815Z,19.81
2022-07-25T22:26:58.556Z,19.80
2022-07-25T22:29:27.004Z,19.80
2022-07-25T22:31:55.407Z,19.74
2022-07-25T22:34:25.035Z,19.71
2022-07-25T22:36:56.573Z,19.74
2022-07-25T22:39:24.781Z,19.69
2022-07-25T22:41:52.724Z,19.66
2022-07-25T22:44:20.459Z,19.63
2022-07-25T22:46:48.426Z,19.62
2022-07-25T22:49:18.060Z,19.64
2022-07-25T22:51:46.509Z,19.62
2022-07-25T22:54:15.928Z,19.62
2022-07-25T22:56:44.730Z,19.62
2022-07-25T22:59:12.685Z,19.60
2022-07-25T23:01:40.388Z,19.59
2022-07-25T23:04:08.549Z,19.56
2022-07-25T23:07:41.475Z,19.52
2022-07-25T23:10:12.331Z,19.49
2022-07-25T23:12:40.179Z,19.49
2022-07-25T23:15:09.102Z,19.48
2022-07-25T23:17:37.980Z,19.45
2022-07-25T23:20:07.342Z,19.51
2022-07-25T23:22:34.997Z,19.45
2022-07-25T23:25:02.913Z,19.42
2022-07-25T23:27:33.924Z,19.44
2022-07-25T23:30:04.480Z,19.46
2022-07-25T23:32:32.706Z,19.41
2022-07-25T23:35:01.354Z,19.40
2022-07-25T23:37:29.982Z,19.37
2022-07-25T23:43:57.214Z,19.32
2022-07-25T23:46:29.401Z,19.30
2022-07-25T23:49:00.541Z,19.28
2022-07-25T23:51:28.336Z,19.28
2022-07-25T23:53:56.044Z,19.23
2022-07-25T23:56:23.949Z,19.25
2022-07-25T23:58:55.018Z,19.18
